createdAt,value
2022-07-30T00:00:25.865Z,100466.09
2022-07-30T00:03:27.791Z,100459.72
2022-07-30T00:06:29.284Z,100462.78
2022-07-30T00:09:33.285Z,100460.22
2022-07-30T00:12:35.983Z,100466.06
2022-07-30T00:15:37.614Z,100465.84
2022-07-30T00:18:39.217Z,100465.22
2022-07-30T00:21:42.087Z,100462.69
2022-07-30T00:24:44.317Z,100456.59
2022-07-30T00:27:46.123Z,100455.63
2022-07-30T00:30:47.621Z,100457.44
2022-07-30T00:33:54.263Z,100453.31
2022-07-30T00:36:55.745Z,100451.00
2022-07-30T00:39:57.558Z,100443.28
2022-07-30T00:42:58.996Z,100449.63
2022-07-30T00:46:00.800Z,100442.22
2022-07-30T00:49:02.390Z,100448.78
2022-07-30T00:52:04.194Z,100450.72
2022-07-30T00:55:08.216Z,100453.41
2022-07-30T00:58:09.713Z,100444.97
2022-07-30T01:01:11.526Z,100447.19
2022-07-30T01:04:13.062Z,100454.25
2022-07-30T01:07:14.655Z,100449.75
2022-07-30T01:10:16.509Z,100447.78
2022-07-30T01:13:18.202Z,100441.22
2022-07-30T01:16:19.702Z,100437.78
2022-07-30T01:19:46.648Z,100437.03
2022-07-30T01:23:08.976Z,100434.59
2022-07-30T01:26:14.419Z,100433.63
2022-07-30T01:29:17.637Z,100433.38
2022-07-30T01:32:22.619Z,100436.03
2022-07-30T01:35:27.685Z,100439.81
2022-07-30T01:38:34.889Z,100445.72
2022-07-30T01:41:38.249Z,100436.13
2022-07-30T01:44:41.579Z,100446.47
2022-07-30T01:47:44.792Z,100445.31
2022-07-30T01:50:49.066Z,100443.13
2022-07-30T01:53:53.430Z,100451.94
2022-07-30T01:56:57.280Z,100446.00
2022-07-30T02:00:03.004Z,100450.25
2022-07-30T02:03:18.386Z,100449.97
2022-07-30T02:06:23.170Z,100459.38
2022-07-30T02:09:31.264Z,100463.28
2022-07-30T02:12:36.443Z,100458.38
2022-07-30T02:15:48.757Z,100457.09
2022-07-30T02:19:04.514Z,100465.47
2022-07-30T02:22:15.312Z,100474.25
2022-07-30T02:25:21.260Z,100465.78
2022-07-30T02:28:24.431Z,100469.56
2022-07-30T02:31:28.363Z,100477.03
2022-07-30T02:34:33.977Z,100476.25
2022-07-30T02:37:43.096Z,100473.41
2022-07-30T02:40:46.548Z,100481.84
2022-07-30T02:43:49.930Z,100487.72
2022-07-30T02:46:54.408Z,100485.06
2022-07-30T02:50:06.909Z,100487.09
2022-07-30T02:53:10.907Z,100488.81
2022-07-30T02:56:13.456Z,100486.88
2022-07-30T02:59:20.883Z,100497.38
2022-07-30T03:02:29.046Z,100503.34
2022-07-30T03:05:31.582Z,100503.69
2022-07-30T03:08:35.104Z,100499.28
2022-07-30T03:11:37.289Z,100507.63
2022-07-30T03:14:39.661Z,100506.44
2022-07-30T03:17:49.048Z,100505.50
2022-07-30T03:20:54.219Z,100509.66
2022-07-30T03:23:56.693Z,100510.00
2022-07-30T03:27:00.790Z,100519.06
2022-07-30T03:30:03.356Z,100515.13
2022-07-30T03:33:05.478Z,100511.50
2022-07-30T03:36:08.492Z,100517.69
2022-07-30T03:39:11.895Z,100523.03
2022-07-30T03:42:13.827Z,100526.00
2022-07-30T03:45:16.053Z,100518.13
2022-07-30T03:48:18.088Z,100525.19
2022-07-30T03:51:21.973Z,100532.63
2022-07-30T03:54:23.733Z,100539.69
2022-07-30T03:57:48.891Z,100539.28
2022-07-30T04:00:51.769Z,100535.34
2022-07-30T04:03:53.521Z,100542.72
2022-07-30T04:06:55.066Z,100545.72
2022-07-30T04:09:56.569Z,100539.69
2022-07-30T04:13:13.441Z,100545.69
2022-07-30T04:16:39.783Z,100549.78
2022-07-30T04:19:49.812Z,100550.06
2022-07-30T04:22:53.196Z,100548.34
2022-07-30T04:25:55.862Z,100556.66
2022-07-30T04:28:58.795Z,100550.25
2022-07-30T04:32:00.846Z,100564.38
2022-07-30T04:35:51.610Z,100566.88
2022-07-30T04:39:00.029Z,100570.19
2022-07-30T04:42:01.599Z,100581.50
2022-07-30T04:45:09.660Z,100583.25
2022-07-30T04:48:28.318Z,100578.97
2022-07-30T04:51:39.055Z,100584.84
2022-07-30T04:55:05.802Z,100588.63
2022-07-30T04:58:08.917Z,100589.31
2022-07-30T05:01:11.922Z,100595.31
2022-07-30T05:04:16.166Z,100599.72
2022-07-30T05:07:22.315Z,100598.34
2022-07-30T05:10:24.445Z,100595.97
2022-07-30T05:13:34.127Z,100599.16
2022-07-30T05:16:38.185Z,100602.06
2022-07-30T05:19:40.494Z,100602.00
2022-07-30T05:22:42.730Z,100603.03
2022-07-30T05:25:45.812Z,100604.75
2022-07-30T05:28:55.193Z,100611.00
2022-07-30T05:32:03.710Z,100605.88
2022-07-30T05:35:09.280Z,100609.53
2022-07-30T05:38:11.423Z,100609.50
2022-07-30T05:41:31.832Z,100610.41
2022-07-30T05:44:34.485Z,100611.88
2022-07-30T05:47:36.199Z,100608.22
2022-07-30T05:50:37.725Z,100613.47
2022-07-30T05:53:40.290Z,100603.91
2022-07-30T05:57:02.295Z,100606.41
2022-07-30T06:00:11.928Z,100603.47
2022-07-30T06:03:23.243Z,100608.78
2022-07-30T06:06:44.952Z,100619.25
2022-07-30T06:09:46.463Z,100618.84
2022-07-30T06:12:48.508Z,100616.41
2022-07-30T06:15:53.441Z,100617.88
2022-07-30T06:18:54.967Z,100622.75
2022-07-30T06:22:14.713Z,100617.53
2022-07-30T06:25:21.834Z,100631.97
2022-07-30T06:28:39.517Z,100629.69
2022-07-30T06:31:55.613Z,100629.13
2022-07-30T06:35:02.630Z,100633.69
2022-07-30T06:38:07.985Z,100627.25
2022-07-30T06:41:22.042Z,100634.94
2022-07-30T06:44:27.122Z,100635.81
2022-07-30T06:47:47.752Z,100633.81
2022-07-30T06:50:49.452Z,100637.72
2022-07-30T06:53:51.033Z,100645.69
2022-07-30T06:57:12.450Z,100645.22
2022-07-30T07:00:15.557Z,100643.38
2022-07-30T07:03:19.992Z,100648.59
2022-07-30T07:06:22.146Z,100638.88
2022-07-30T07:09:23.618Z,100637.84
2022-07-30T07:12:40.635Z,100643.78
2022-07-30T07:15:42.306Z,100645.47
2022-07-30T07:18:48.531Z,100644.53
2022-07-30T07:21:50.550Z,100645.09
2022-07-30T07:24:52.173Z,100648.19
2022-07-30T07:28:11.169Z,100645.03
2022-07-30T07:32:07.290Z,100649.00
2022-07-30T07:34:36.244Z,100649.66
2022-07-30T07:37:37.721Z,100654.78
2022-07-30T07:40:40.931Z,100653.16
2022-07-30T07:43:42.510Z,100654.53
2022-07-30T07:46:53.093Z,100647.09
2022-07-30T07:49:56.057Z,100648.53
2022-07-30T07:52:57.832Z,100648.41
2022-07-30T07:55:59.680Z,100652.59
2022-07-30T07:59:01.324Z,100652.75
2022-07-30T08:02:04.343Z,100650.00
2022-07-30T08:05:25.028Z,100649.13
2022-07-30T08:08:55.848Z,100639.66
2022-07-30T08:12:22.572Z,100641.44
2022-07-30T08:15:42.701Z,100646.44
2022-07-30T08:19:19.192Z,100649.53
2022-07-30T08:22:30.028Z,100649.72
2022-07-30T08:25:31.628Z,100649.53
2022-07-30T08:28:35.861Z,100645.81
2022-07-30T08:31:37.981Z,100649.75
2022-07-30T08:34:39.558Z,100643.59
2022-07-30T08:37:42.153Z,100649.13
2022-07-30T08:40:43.858Z,100646.19
2022-07-30T08:43:50.867Z,100638.78
2022-07-30T08:46:57.155Z,100645.34
2022-07-30T08:50:29.028Z,100640.41
2022-07-30T08:54:08.872Z,100645.38
2022-07-30T08:57:11.806Z,100636.31
2022-07-30T09:00:14.327Z,100637.97
2022-07-30T09:03:16.406Z,100638.53
2022-07-30T09:06:19.298Z,100639.09
2022-07-30T09:09:20.965Z,100642.84
2022-07-30T09:12:36.849Z,100626.59
2022-07-30T09:15:38.922Z,100630.56
2022-07-30T09:18:44.286Z,100636.88
2022-07-30T09:21:56.935Z,100639.38
2022-07-30T09:25:07.773Z,100637.81
2022-07-30T09:28:38.426Z,100638.53
2022-07-30T09:32:08.005Z,100628.16
2022-07-30T09:35:43.276Z,100632.66
2022-07-30T09:38:53.092Z,100630.00
2022-07-30T09:42:20.328Z,100633.13
2022-07-30T09:45:22.155Z,100635.69
2022-07-30T09:48:25.732Z,100634.53
2022-07-30T09:51:56.227Z,100627.28
2022-07-30T09:54:59.888Z,100633.28
2022-07-30T09:58:07.102Z,100629.00
2022-07-30T10:01:09.878Z,100629.78
2022-07-30T10:04:47.217Z,100624.13
2022-07-30T10:08:01.110Z,100639.50
2022-07-30T10:11:08.417Z,100633.66
2022-07-30T10:14:10.449Z,100623.81
2022-07-30T10:17:12.875Z,100621.56
2022-07-30T10:20:16.407Z,100620.91
2022-07-30T10:23:26.487Z,100614.31
2022-07-30T10:26:53.172Z,100610.09
2022-07-30T10:30:19.770Z,100603.66
2022-07-30T10:33:34.912Z,100605.31
2022-07-30T10:36:44.877Z,100608.56
2022-07-30T10:40:11.134Z,100607.53
2022-07-30T10:43:54.350Z,100594.81
2022-07-30T10:47:07.674Z,100609.19
2022-07-30T10:50:22.102Z,100603.31
2022-07-30T10:53:37.181Z,100592.34
2022-07-30T10:56:38.734Z,100586.72
2022-07-30T10:59:49.388Z,100590.13
2022-07-30T11:03:15.042Z,100592.19
2022-07-30T11:06:24.244Z,100583.97
2022-07-30T11:09:41.081Z,100584.34
2022-07-30T11:12:44.688Z,100595.22
2022-07-30T11:16:00.098Z,100586.47
2022-07-30T11:19:55.160Z,100585.97
2022-07-30T11:22:44.417Z,100577.81
2022-07-30T11:25:51.186Z,100582.19
2022-07-30T11:28:56.071Z,100577.69
2022-07-30T11:32:26.387Z,100574.63
2022-07-30T11:35:34.374Z,100566.91
2022-07-30T11:38:54.129Z,100571.84
2022-07-30T11:42:24.560Z,100558.03
2022-07-30T11:45:29.267Z,100561.06
2022-07-30T11:48:31.391Z,100556.25
2022-07-30T11:51:43.761Z,100554.19
2022-07-30T11:54:55.081Z,100562.28
2022-07-30T11:57:58.216Z,100562.72
2022-07-30T12:01:11.546Z,100566.94
2022-07-30T12:04:13.092Z,100558.06
2022-07-30T12:07:22.466Z,100553.56
2022-07-30T12:10:26.741Z,100550.94
2022-07-30T12:13:44.517Z,100549.75
2022-07-30T12:16:52.948Z,100549.28
2022-07-30T12:19:54.418Z,100545.13
2022-07-30T12:22:57.438Z,100545.75
2022-07-30T12:25:59.218Z,100544.78
2022-07-30T12:29:04.817Z,100537.72
2022-07-30T12:32:06.412Z,100542.84
2022-07-30T12:35:08.538Z,100531.31
2022-07-30T12:38:09.985Z,100530.69
2022-07-30T12:41:11.416Z,100520.81
2022-07-30T12:44:34.559Z,100514.72
2022-07-30T12:47:36.310Z,100519.28
2022-07-30T12:50:37.851Z,100522.69
2022-07-30T12:53:39.825Z,100511.97
2022-07-30T12:56:41.826Z,100504.28
2022-07-30T12:59:43.273Z,100509.41
2022-07-30T13:02:44.830Z,100503.31
2022-07-30T13:05:48.558Z,100500.09
2022-07-30T13:08:58.205Z,100501.81
2022-07-30T13:11:59.746Z,100499.41
2022-07-30T13:15:01.949Z,100489.88
2022-07-30T13:18:03.453Z,100492.22
2022-07-30T13:21:08.085Z,100486.09
2022-07-30T13:24:10.937Z,100486.47
2022-07-30T13:27:19.829Z,100484.94
2022-07-30T13:30:21.384Z,100474.72
2022-07-30T13:33:22.813Z,100488.88
2022-07-30T13:36:24.666Z,100487.03
2022-07-30T13:39:26.115Z,100482.25
2022-07-30T13:42:27.539Z,100476.81
2022-07-30T13:45:30.065Z,100481.06
2022-07-30T13:48:32.664Z,100483.44
2022-07-30T13:51:34.194Z,100473.06
2022-07-30T13:54:35.643Z,100474.31
2022-07-30T13:57:37.076Z,100468.63
2022-07-30T14:00:40.866Z,100471.13
2022-07-30T14:03:47.104Z,100473.22
2022-07-30T14:06:50.880Z,100462.72
2022-07-30T14:09:54.502Z,100463.78
2022-07-30T14:12:57.446Z,100455.41
2022-07-30T14:15:59.354Z,100448.88
2022-07-30T14:19:00.795Z,100445.78
2022-07-30T14:22:02.254Z,100457.25
2022-07-30T14:25:04.012Z,100457.91
2022-07-30T14:28:05.412Z,100444.97
2022-07-30T14:31:06.820Z,100438.38
2022-07-30T14:34:08.612Z,100444.22
2022-07-30T14:37:14.517Z,100439.13
2022-07-30T14:40:16.356Z,100453.34
2022-07-30T14:43:19.412Z,100451.31
2022-07-30T14:46:20.867Z,100435.47
2022-07-30T14:49:22.779Z,100436.38
2022-07-30T14:52:25.892Z,100442.53
2022-07-30T14:55:27.595Z,100444.03
2022-07-30T14:58:29.020Z,100444.06
2022-07-30T15:01:30.551Z,100452.50
2022-07-30T15:04:32.004Z,100439.75
2022-07-30T15:07:34.738Z,100447.59
2022-07-30T15:10:36.374Z,100439.13
2022-07-30T15:13:49.682Z,100437.78
2022-07-30T15:16:52.174Z,100445.00
2022-07-30T15:19:53.563Z,100436.78
2022-07-30T15:22:55.160Z,100435.94
2022-07-30T15:25:56.608Z,100431.53
2022-07-30T15:28:58.078Z,100425.91
2022-07-30T15:32:00.457Z,100436.31
2022-07-30T15:35:02.369Z,100442.66
2022-07-30T15:38:04.037Z,100439.03
2022-07-30T15:41:06.900Z,100441.63
2022-07-30T15:44:09.837Z,100440.03
2022-07-30T15:47:13.142Z,100430.22
2022-07-30T15:50:16.598Z,100435.13
2022-07-30T15:53:18.118Z,100431.13
2022-07-30T15:56:19.599Z,100429.50
2022-07-30T15:59:21.460Z,100427.13
2022-07-30T16:02:23.000Z,100430.78
2022-07-30T16:05:24.470Z,100424.25
2022-07-30T16:08:26.047Z,100426.22
2022-07-30T16:11:27.514Z,100425.81
2022-07-30T16:14:35.095Z,100430.09
2022-07-30T16:17:37.234Z,100422.78
2022-07-30T16:20:38.773Z,100432.72
2022-07-30T16:23:40.214Z,100418.25
2022-07-30T16:26:41.908Z,100424.06
2022-07-30T16:29:43.347Z,100427.81
2022-07-30T16:32:44.776Z,100434.38
2022-07-30T16:35:49.048Z,100432.94
2022-07-30T16:38:51.970Z,100429.38
2022-07-30T16:41:53.428Z,100426.53
2022-07-30T16:44:54.861Z,100430.72
2022-07-30T16:47:56.630Z,100426.22
2022-07-30T16:50:58.867Z,100428.25
2022-07-30T16:54:00.340Z,100428.00
2022-07-30T16:57:04.004Z,100429.47
2022-07-30T17:00:14.617Z,100430.50
2022-07-30T17:03:20.216Z,100418.47
2022-07-30T17:06:21.894Z,100424.81
2022-07-30T17:09:23.308Z,100427.25
2022-07-30T17:12:25.388Z,100420.31
2022-07-30T17:15:32.738Z,100421.69
2022-07-30T17:18:34.684Z,100426.94
2022-07-30T17:21:36.287Z,100441.63
2022-07-30T17:24:37.767Z,100437.22
2022-07-30T17:27:39.429Z,100440.34
2022-07-30T17:30:40.848Z,100442.72
2022-07-30T17:33:42.272Z,100450.00
2022-07-30T17:36:52.230Z,100452.22
2022-07-30T17:40:26.410Z,100450.19
2022-07-30T17:43:15.955Z,100448.69
2022-07-30T17:46:17.675Z,100455.78
2022-07-30T17:49:19.131Z,100463.41
2022-07-30T17:52:25.956Z,100456.47
2022-07-30T17:55:28.834Z,100460.88
2022-07-30T17:58:30.377Z,100456.13
2022-07-30T18:01:32.314Z,100461.06
2022-07-30T18:04:34.702Z,100468.50
2022-07-30T18:07:37.027Z,100465.97
2022-07-30T18:10:38.593Z,100461.41
2022-07-30T18:13:40.397Z,100469.84
2022-07-30T18:16:41.862Z,100466.97
2022-07-30T18:19:43.351Z,100481.47
2022-07-30T18:22:44.847Z,100486.38
2022-07-30T18:25:53.070Z,100484.69
2022-07-30T18:28:55.783Z,100489.72
2022-07-30T18:31:57.277Z,100488.66
2022-07-30T18:34:58.702Z,100492.50
2022-07-30T18:38:00.282Z,100495.34
2022-07-30T18:41:02.811Z,100499.84
2022-07-30T18:44:04.481Z,100503.84
2022-07-30T18:47:05.963Z,100502.31
2022-07-30T18:50:08.291Z,100503.09
2022-07-30T18:53:15.301Z,100500.88
2022-07-30T18:56:17.401Z,100506.06
2022-07-30T18:59:19.697Z,100509.25
2022-07-30T19:02:25.260Z,100508.19
2022-07-30T19:05:26.996Z,100513.81
2022-07-30T19:08:28.605Z,100519.53
2022-07-30T19:11:30.060Z,100521.19
2022-07-30T19:14:31.559Z,100525.53
2022-07-30T19:17:45.323Z,100529.84
2022-07-30T19:20:50.507Z,100531.66
2022-07-30T19:23:51.961Z,100534.25
2022-07-30T19:26:53.509Z,100539.00
2022-07-30T19:29:54.957Z,100534.34
2022-07-30T19:33:03.503Z,100543.78
2022-07-30T19:36:05.096Z,100550.75
2022-07-30T19:39:07.660Z,100555.47
2022-07-30T19:42:10.173Z,100556.31
2022-07-30T19:45:13.207Z,100565.28
2022-07-30T19:48:29.083Z,100570.31
2022-07-30T19:52:09.459Z,100582.56
2022-07-30T19:54:54.598Z,100586.59
2022-07-30T19:57:56.447Z,100588.88
2022-07-30T20:00:58.144Z,100594.72
2022-07-30T20:04:01.278Z,100590.63
2022-07-30T20:07:03.496Z,100601.72
2022-07-30T20:10:07.681Z,100600.47
2022-07-30T20:13:09.165Z,100608.50
2022-07-30T20:16:15.367Z,100604.38
2022-07-30T20:19:18.210Z,100595.84
2022-07-30T20:22:23.975Z,100602.09
2022-07-30T20:25:25.993Z,100601.69
2022-07-30T20:28:27.400Z,100609.34
2022-07-30T20:31:30.085Z,100604.41
2022-07-30T20:34:35.500Z,100602.72
2022-07-30T20:40:58.381Z,100619.78
2022-07-30T20:44:02.377Z,100612.00
2022-07-30T20:47:08.342Z,100618.69
2022-07-30T20:50:11.979Z,100614.84
2022-07-30T20:53:16.044Z,100622.13
2022-07-30T20:56:20.028Z,100621.25
2022-07-30T20:59:23.699Z,100613.53
2022-07-30T21:02:28.271Z,100609.28
2022-07-30T21:05:30.168Z,100612.41
2022-07-30T21:08:32.808Z,100623.06
2022-07-30T21:11:35.904Z,100621.06
2022-07-30T21:14:37.452Z,100621.44
2022-07-30T21:17:39.036Z,100624.56
2022-07-30T21:20:40.955Z,100621.09
2022-07-30T21:23:48.856Z,100633.28
2022-07-30T21:26:51.480Z,100631.63
2022-07-30T21:29:52.900Z,100634.31
2022-07-30T21:32:55.113Z,100636.28
2022-07-30T21:35:56.525Z,100642.13
2022-07-30T21:38:59.461Z,100638.13
2022-07-30T21:42:04.707Z,100634.00
2022-07-30T21:45:07.150Z,100638.53
2022-07-30T21:48:09.380Z,100634.00
2022-07-30T21:51:13.643Z,100627.19
2022-07-30T21:54:28.487Z,100637.34
2022-07-30T21:57:31.560Z,100641.19
2022-07-30T22:00:48.208Z,100641.00
2022-07-30T22:04:03.246Z,100645.81
2022-07-30T22:07:09.300Z,100647.00
2022-07-30T22:10:12.899Z,100650.13
2022-07-30T22:13:23.507Z,100657.78
2022-07-30T22:16:25.211Z,100657.78
2022-07-30T22:19:26.633Z,100658.31
2022-07-30T22:22:35.539Z,100663.69
2022-07-30T22:25:39.722Z,100670.47
2022-07-30T22:28:46.599Z,100674.03
2022-07-30T22:31:54.106Z,100671.47
2022-07-30T22:34:55.740Z,100668.75
2022-07-30T22:37:58.904Z,100672.97
2022-07-30T22:41:01.400Z,100664.50
2022-07-30T22:44:03.913Z,100670.59
2022-07-30T22:50:27.437Z,100668.13
2022-07-30T22:53:56.842Z,100663.44
2022-07-30T22:56:50.716Z,100672.03
2022-07-30T22:59:58.720Z,100666.41
2022-07-30T23:03:02.035Z,100671.78
2022-07-30T23:06:03.602Z,100669.47
2022-07-30T23:09:05.134Z,100674.72
2022-07-30T23:12:07.436Z,100666.06
2022-07-30T23:12:18.232Z,100609.69
2022-07-30T23:12:33.727Z,100657.81
2022-07-30T23:15:10.462Z,100667.16
2022-07-30T23:18:12.019Z,100677.69
2022-07-30T23:21:14.019Z,100669.13
2022-07-30T23:24:17.693Z,100664.63
2022-07-30T23:27:19.374Z,100664.50
2022-07-30T23:30:20.933Z,100660.63
2022-07-30T23:33:22.391Z,100657.94
2022-07-30T23:36:23.977Z,100658.19
2022-07-30T23:39:25.453Z,100662.94
2022-07-30T23:42:26.865Z,100664.03
2022-07-30T23:45:28.425Z,100658.06
2022-07-30T23:48:31.561Z,100656.97
2022-07-30T23:51:33.565Z,100660.53
2022-07-30T23:54:35.156Z,100664.06
2022-07-30T23:57:37.209Z,100665.44
